createdAt,value
2017-09-21T00:00:47.443Z,1012.64
2017-09-21T00:01:47.407Z,1012.63
2017-09-21T00:02:47.379Z,1012.61
2017-09-21T00:03:47.340Z,1012.58
2017-09-21T00:04:47.307Z,1012.63
2017-09-21T00:05:47.272Z,1012.61
2017-09-21T00:06:47.240Z,1012.60
2017-09-21T00:07:47.206Z,1012.59
2017-09-21T00:08:47.172Z,1012.60
2017-09-21T00:09:47.138Z,1012.55
2017-09-21T00:10:47.102Z,1012.63
2017-09-21T00:11:47.070Z,1012.60
2017-09-21T00:12:47.041Z,1012.65
2017-09-21T00:13:47.003Z,1012.66
2017-09-21T00:14:46.970Z,1012.67
2017-09-21T00:15:46.935Z,1012.67
2017-09-21T00:16:46.901Z,1012.69
2017-09-21T00:17:46.867Z,1012.71
2017-09-21T00:18:46.834Z,1012.68
2017-09-21T00:19:46.802Z,1012.70
2017-09-21T00:20:46.766Z,1012.67
2017-09-21T00:21:46.732Z,1012.65
2017-09-21T00:22:46.697Z,1012.67
2017-09-21T00:23:46.664Z,1012.65
2017-09-21T00:24:46.634Z,1012.67
2017-09-21T00:25:46.596Z,1012.60
2017-09-21T00:26:46.564Z,1012.55
2017-09-21T00:27:46.528Z,1012.61
2017-09-21T00:28:46.494Z,1012.60
2017-09-21T00:29:46.460Z,1012.62
2017-09-21T00:30:46.426Z,1012.61
2017-09-21T00:31:46.393Z,1012.58
2017-09-21T00:32:46.359Z,1012.64
2017-09-21T00:33:46.323Z,1012.58
2017-09-21T00:34:46.290Z,1012.66
2017-09-21T00:35:46.276Z,1012.62
2017-09-21T00:36:46.221Z,1012.57
2017-09-21T00:37:46.187Z,1012.63
2017-09-21T00:38:46.154Z,1012.64
2017-09-21T00:39:46.121Z,1012.51
2017-09-21T00:40:46.085Z,1012.59
2017-09-21T00:41:46.052Z,1012.58
2017-09-21T00:42:46.019Z,1012.63
2017-09-21T00:43:45.983Z,1012.44
2017-09-21T00:44:45.950Z,1012.55
2017-09-21T00:45:45.920Z,1012.62
2017-09-21T00:46:45.881Z,1012.56
2017-09-21T00:47:45.847Z,1012.62
2017-09-21T00:48:45.814Z,1012.67
2017-09-21T00:49:45.780Z,1012.62
2017-09-21T00:50:45.744Z,1012.57
2017-09-21T00:51:45.710Z,1012.58
2017-09-21T00:52:45.677Z,1012.61
2017-09-21T00:53:45.644Z,1012.59
2017-09-21T00:54:45.608Z,1012.56
2017-09-21T00:55:45.573Z,1012.52
2017-09-21T00:56:45.540Z,1012.61
2017-09-21T00:57:45.504Z,1012.52
2017-09-21T00:58:45.478Z,1012.62
2017-09-21T00:59:45.437Z,1012.59
2017-09-21T01:00:45.402Z,1012.59
2017-09-21T01:01:45.370Z,1012.58
2017-09-21T01:02:46.054Z,1012.54
2017-09-21T01:03:45.300Z,1012.58
2017-09-21T01:04:45.264Z,1012.66
2017-09-21T01:05:45.230Z,1012.64
2017-09-21T01:06:45.196Z,1012.54
2017-09-21T01:07:45.162Z,1012.62
2017-09-21T01:08:45.127Z,1012.57
2017-09-21T01:09:45.092Z,1012.57
2017-09-21T01:10:45.059Z,1012.55
2017-09-21T01:11:45.024Z,1012.62
2017-09-21T01:12:44.990Z,1012.51
2017-09-21T01:13:44.954Z,1012.49
2017-09-21T01:14:44.920Z,1012.57
2017-09-21T01:15:44.886Z,1012.55
2017-09-21T01:16:44.853Z,1012.52
2017-09-21T01:17:44.816Z,1012.50
2017-09-21T01:18:44.783Z,1012.46
2017-09-21T01:19:44.748Z,1012.47
2017-09-21T01:20:44.714Z,1012.54
2017-09-21T01:21:44.678Z,1012.56
2017-09-21T01:22:44.644Z,1012.53
2017-09-21T01:23:44.610Z,1012.52
2017-09-21T01:24:44.576Z,1012.53
2017-09-21T01:25:44.542Z,1012.50
2017-09-21T01:26:44.507Z,1012.51
2017-09-21T01:27:44.474Z,1012.52
2017-09-21T01:28:44.439Z,1012.54
2017-09-21T01:29:44.403Z,1012.48
2017-09-21T01:30:44.370Z,1012.48
2017-09-21T01:31:44.334Z,1012.44
2017-09-21T01:32:44.299Z,1012.43
2017-09-21T01:33:44.267Z,1012.45
2017-09-21T01:34:44.230Z,1012.36
2017-09-21T01:35:44.197Z,1012.42
2017-09-21T01:36:44.162Z,1012.42
2017-09-21T01:37:44.128Z,1012.41
2017-09-21T01:38:44.094Z,1012.38
2017-09-21T01:39:44.061Z,1012.35
2017-09-21T01:40:44.024Z,1012.44
2017-09-21T01:41:43.990Z,1012.47
2017-09-21T01:42:43.954Z,1012.47
2017-09-21T01:43:43.920Z,1012.40
2017-09-21T01:44:43.886Z,1012.44
2017-09-21T01:45:43.852Z,1012.45
2017-09-21T01:46:43.817Z,1012.43
2017-09-21T01:47:43.783Z,1012.44
2017-09-21T01:48:43.744Z,1012.47
2017-09-21T01:49:43.714Z,1012.37
2017-09-21T01:50:43.678Z,1012.42
2017-09-21T01:51:43.642Z,1012.46
2017-09-21T01:52:43.608Z,1012.36
2017-09-21T01:53:43.576Z,1012.47
2017-09-21T01:54:43.540Z,1012.46
2017-09-21T01:55:43.505Z,1012.43
2017-09-21T01:56:43.574Z,1012.41
2017-09-21T01:57:43.436Z,1012.47
2017-09-21T01:58:43.403Z,1012.53
2017-09-21T01:59:43.367Z,1012.48
2017-09-21T02:00:43.333Z,1012.50
2017-09-21T02:01:43.296Z,1012.46
2017-09-21T02:02:43.262Z,1012.52
2017-09-21T02:03:43.228Z,1012.45
2017-09-21T02:04:43.194Z,1012.51
2017-09-21T02:05:43.164Z,1012.45
2017-09-21T02:06:43.868Z,1012.52
2017-09-21T02:07:43.089Z,1012.44
2017-09-21T02:08:43.055Z,1012.49
2017-09-21T02:09:43.020Z,1012.51
2017-09-21T02:10:42.984Z,1012.48
2017-09-21T02:11:42.952Z,1012.45
2017-09-21T02:12:42.919Z,1012.47
2017-09-21T02:13:42.882Z,1012.41
2017-09-21T02:14:42.848Z,1012.45
2017-09-21T02:15:42.812Z,1012.46
2017-09-21T02:16:42.778Z,1012.46
2017-09-21T02:17:42.743Z,1012.39
2017-09-21T02:18:42.713Z,1012.51
2017-09-21T02:19:42.674Z,1012.54
2017-09-21T02:20:42.639Z,1012.49
2017-09-21T02:21:42.608Z,1012.50
2017-09-21T02:22:42.571Z,1012.53
2017-09-21T02:23:42.534Z,1012.52
2017-09-21T02:24:42.500Z,1012.59
2017-09-21T02:25:42.465Z,1012.61
2017-09-21T02:26:42.430Z,1012.54
2017-09-21T02:27:42.396Z,1012.57
2017-09-21T02:28:42.361Z,1012.59
2017-09-21T02:29:42.487Z,1012.61
2017-09-21T02:30:42.290Z,1012.53
2017-09-21T02:31:42.257Z,1012.58
2017-09-21T02:32:42.222Z,1012.59
2017-09-21T02:33:42.186Z,1012.59
2017-09-21T02:34:42.151Z,1012.54
2017-09-21T02:35:42.117Z,1012.60
2017-09-21T02:36:42.082Z,1012.58
2017-09-21T02:37:42.047Z,1012.49
2017-09-21T02:38:42.017Z,1012.55
2017-09-21T02:39:41.977Z,1012.47
2017-09-21T02:40:41.942Z,1012.49
2017-09-21T02:41:41.943Z,1012.47
2017-09-21T02:42:41.874Z,1012.43
2017-09-21T02:43:41.845Z,1012.43
2017-09-21T02:44:41.806Z,1012.39
2017-09-21T02:45:41.768Z,1012.45
2017-09-21T02:46:41.733Z,1012.45
2017-09-21T02:47:41.697Z,1012.46
2017-09-21T02:48:41.664Z,1012.43
2017-09-21T02:49:41.629Z,1012.44
2017-09-21T02:50:41.593Z,1012.40
2017-09-21T02:51:41.558Z,1012.39
2017-09-21T02:52:42.059Z,1012.39
2017-09-21T02:53:41.489Z,1012.41
2017-09-21T02:54:42.059Z,1012.43
2017-09-21T02:55:41.419Z,1012.40
2017-09-21T02:56:41.383Z,1012.38
2017-09-21T02:57:41.347Z,1012.38
2017-09-21T02:58:41.313Z,1012.36
2017-09-21T02:59:41.279Z,1012.44
2017-09-21T03:00:41.243Z,1012.42
2017-09-21T03:01:41.209Z,1012.44
2017-09-21T03:02:41.172Z,1012.43
2017-09-21T03:03:41.137Z,1012.42
2017-09-21T03:04:41.104Z,1012.45
2017-09-21T03:05:41.067Z,1012.43
2017-09-21T03:06:41.033Z,1012.42
2017-09-21T03:07:40.998Z,1012.43
2017-09-21T03:08:40.962Z,1012.42
2017-09-21T03:09:40.926Z,1012.45
2017-09-21T03:10:40.892Z,1012.39
2017-09-21T03:11:40.857Z,1012.40
2017-09-21T03:12:40.821Z,1012.38
2017-09-21T03:13:40.786Z,1012.39
2017-09-21T03:14:40.976Z,1012.33
2017-09-21T03:15:40.717Z,1012.38
2017-09-21T03:16:40.682Z,1012.40
2017-09-21T03:17:40.645Z,1012.47
2017-09-21T03:18:40.612Z,1012.48
2017-09-21T03:19:40.577Z,1012.44
2017-09-21T03:20:40.540Z,1012.40
2017-09-21T03:21:40.504Z,1012.48
2017-09-21T03:22:40.469Z,1012.45
2017-09-21T03:23:40.440Z,1012.54
2017-09-21T03:24:40.403Z,1012.53
2017-09-21T03:25:40.364Z,1012.47
2017-09-21T03:26:40.329Z,1012.52
2017-09-21T03:27:40.294Z,1012.54
2017-09-21T03:28:40.258Z,1012.54
2017-09-21T03:29:40.222Z,1012.48
2017-09-21T03:30:40.190Z,1012.46
2017-09-21T03:31:40.155Z,1012.52
2017-09-21T03:32:40.117Z,1012.50
2017-09-21T03:33:40.082Z,1012.46
2017-09-21T03:34:40.042Z,1012.50
2017-09-21T03:35:40.012Z,1012.54
2017-09-21T03:36:39.977Z,1012.49
2017-09-21T03:37:39.942Z,1012.48
2017-09-21T03:38:39.906Z,1012.51
2017-09-21T03:39:39.870Z,1012.54
2017-09-21T03:40:39.837Z,1012.50
2017-09-21T03:41:39.799Z,1012.50
2017-09-21T03:42:39.765Z,1012.37
2017-09-21T03:43:39.729Z,1012.43
2017-09-21T03:44:39.695Z,1012.47
2017-09-21T03:45:39.659Z,1012.45
2017-09-21T03:46:39.623Z,1012.44
2017-09-21T03:47:39.588Z,1012.41
2017-09-21T03:48:39.552Z,1012.43
2017-09-21T03:49:39.518Z,1012.46
2017-09-21T03:50:39.481Z,1012.44
2017-09-21T03:51:39.447Z,1012.45
2017-09-21T03:52:39.412Z,1012.39
2017-09-21T03:53:39.376Z,1012.42
2017-09-21T03:54:39.341Z,1012.46
2017-09-21T03:55:39.305Z,1012.44
2017-09-21T03:56:39.269Z,1012.39
2017-09-21T03:57:39.236Z,1012.38
2017-09-21T03:58:39.199Z,1012.40
2017-09-21T03:59:39.167Z,1012.39
2017-09-21T04:00:39.129Z,1012.41
2017-09-21T04:01:39.092Z,1012.39
2017-09-21T04:02:39.059Z,1012.42
2017-09-21T04:03:39.022Z,1012.41
2017-09-21T04:04:38.983Z,1012.42
2017-09-21T04:05:38.951Z,1012.45
2017-09-21T04:06:38.915Z,1012.47
2017-09-21T04:07:38.880Z,1012.48
2017-09-21T04:08:38.845Z,1012.45
2017-09-21T04:09:39.466Z,1012.49
2017-09-21T04:10:38.774Z,1012.45
2017-09-21T04:11:38.739Z,1012.49
2017-09-21T04:12:38.703Z,1012.42
2017-09-21T04:13:38.667Z,1012.49
2017-09-21T04:14:38.633Z,1012.52
2017-09-21T04:15:38.598Z,1012.48
2017-09-21T04:16:38.563Z,1012.51
2017-09-21T04:17:38.527Z,1012.45
2017-09-21T04:18:38.492Z,1012.47
2017-09-21T04:19:38.455Z,1012.47
2017-09-21T04:20:38.426Z,1012.42
2017-09-21T04:21:38.386Z,1012.45
2017-09-21T04:22:38.350Z,1012.45
2017-09-21T04:23:38.321Z,1012.43
2017-09-21T04:24:38.282Z,1012.44
2017-09-21T04:25:38.245Z,1012.40
2017-09-21T04:26:38.210Z,1012.47
2017-09-21T04:27:38.175Z,1012.47
2017-09-21T04:28:38.139Z,1012.46
2017-09-21T04:29:38.102Z,1012.46
2017-09-21T04:30:38.069Z,1012.42
2017-09-21T04:31:38.035Z,1012.46
2017-09-21T04:32:37.999Z,1012.40
2017-09-21T04:33:37.967Z,1012.41
2017-09-21T04:34:37.927Z,1012.39
2017-09-21T04:35:37.893Z,1012.34
2017-09-21T04:36:38.372Z,1012.43
2017-09-21T04:37:37.822Z,1012.29
2017-09-21T04:38:37.787Z,1012.41
2017-09-21T04:39:37.758Z,1012.43
2017-09-21T04:40:37.718Z,1012.47
2017-09-21T04:41:37.682Z,1012.46
2017-09-21T04:42:37.648Z,1012.47
2017-09-21T04:43:37.611Z,1012.52
2017-09-21T04:44:37.578Z,1012.46
2017-09-21T04:45:37.540Z,1012.47
2017-09-21T04:46:37.506Z,1012.54
2017-09-21T04:47:37.472Z,1012.55
2017-09-21T04:48:37.438Z,1012.57
2017-09-21T04:49:37.402Z,1012.61
2017-09-21T04:50:37.367Z,1012.64
2017-09-21T04:51:37.333Z,1012.59
2017-09-21T04:52:37.298Z,1012.60
2017-09-21T04:53:37.263Z,1012.60
2017-09-21T04:54:37.227Z,1012.56
2017-09-21T04:55:37.193Z,1012.57
2017-09-21T04:56:37.158Z,1012.60
2017-09-21T04:57:37.121Z,1012.60
2017-09-21T04:58:37.087Z,1012.57
2017-09-21T04:59:37.050Z,1012.59
2017-09-21T05:00:37.015Z,1012.56
2017-09-21T05:01:36.981Z,1012.59
2017-09-21T05:02:36.946Z,1012.56
2017-09-21T05:03:36.911Z,1012.53
2017-09-21T05:04:36.875Z,1012.53
2017-09-21T05:05:36.839Z,1012.47
2017-09-21T05:06:36.804Z,1012.50
2017-09-21T05:07:36.991Z,1012.43
2017-09-21T05:08:36.733Z,1012.48
2017-09-21T05:09:36.698Z,1012.46
2017-09-21T05:10:36.663Z,1012.46
2017-09-21T05:11:36.627Z,1012.47
2017-09-21T05:12:36.591Z,1012.47
2017-09-21T05:13:36.555Z,1012.50
2017-09-21T05:14:36.535Z,1012.50
2017-09-21T05:15:36.487Z,1012.50
2017-09-21T05:16:36.451Z,1012.51
2017-09-21T05:17:36.423Z,1012.42
2017-09-21T05:18:36.377Z,1012.51
2017-09-21T05:19:36.343Z,1012.47
2017-09-21T05:20:36.309Z,1012.48
2017-09-21T05:21:36.272Z,1012.50
2017-09-21T05:22:36.235Z,1012.59
2017-09-21T05:23:36.200Z,1012.51
2017-09-21T05:24:36.165Z,1012.57
2017-09-21T05:25:36.132Z,1012.47
2017-09-21T05:26:36.094Z,1012.51
2017-09-21T05:27:36.058Z,1012.55
2017-09-21T05:28:36.032Z,1012.56
2017-09-21T05:29:35.987Z,1012.54
2017-09-21T05:30:35.950Z,1012.54
2017-09-21T05:31:35.916Z,1012.58
2017-09-21T05:32:35.881Z,1012.55
2017-09-21T05:33:35.844Z,1012.58
2017-09-21T05:34:35.808Z,1012.55
2017-09-21T05:35:35.774Z,1012.59
2017-09-21T05:36:35.740Z,1012.57
2017-09-21T05:37:35.703Z,1012.61
2017-09-21T05:38:35.668Z,1012.61
2017-09-21T05:39:35.650Z,1012.58
2017-09-21T05:40:35.597Z,1012.65
2017-09-21T05:41:35.562Z,1012.63
2017-09-21T05:42:35.530Z,1012.64
2017-09-21T05:43:35.492Z,1012.61
2017-09-21T05:44:35.456Z,1012.60
2017-09-21T05:45:35.419Z,1012.60
2017-09-21T05:46:35.384Z,1012.60
2017-09-21T05:47:35.349Z,1012.57
2017-09-21T05:48:35.313Z,1012.57
2017-09-21T05:49:35.278Z,1012.60
2017-09-21T05:50:35.244Z,1012.59
2017-09-21T05:51:35.209Z,1012.57
2017-09-21T05:52:35.174Z,1012.57
2017-09-21T05:53:35.139Z,1012.60
2017-09-21T05:54:35.108Z,1012.63
2017-09-21T05:55:35.069Z,1012.65
2017-09-21T05:56:35.037Z,1012.68
2017-09-21T05:57:34.996Z,1012.67
2017-09-21T05:58:34.963Z,1012.71
2017-09-21T05:59:34.930Z,1012.71
2017-09-21T06:00:35.017Z,1012.69
2017-09-21T06:01:34.859Z,1012.73
2017-09-21T06:02:34.831Z,1012.78
2017-09-21T06:03:35.142Z,1012.72
2017-09-21T06:04:35.145Z,1012.77
2017-09-21T06:05:34.721Z,1012.73
2017-09-21T06:06:34.685Z,1012.70
2017-09-21T06:07:34.651Z,1012.63
2017-09-21T06:08:34.617Z,1012.63
2017-09-21T06:09:34.582Z,1012.67
2017-09-21T06:10:34.549Z,1012.69
2017-09-21T06:11:34.521Z,1012.70
2017-09-21T06:12:34.509Z,1012.72
2017-09-21T06:13:34.453Z,1012.73
2017-09-21T06:14:34.413Z,1012.68
2017-09-21T06:15:34.378Z,1012.69
2017-09-21T06:16:34.344Z,1012.69
2017-09-21T06:17:34.310Z,1012.73
2017-09-21T06:18:34.274Z,1012.75
2017-09-21T06:19:34.245Z,1012.77
2017-09-21T06:20:34.210Z,1012.80
2017-09-21T06:21:34.173Z,1012.78
2017-09-21T06:22:34.142Z,1012.76
2017-09-21T06:23:34.110Z,1012.77
2017-09-21T06:24:34.075Z,1012.75
2017-09-21T06:25:34.043Z,1012.79
2017-09-21T06:26:34.009Z,1012.74
2017-09-21T06:27:33.989Z,1012.78
2017-09-21T06:28:33.943Z,1012.78
2017-09-21T06:29:34.358Z,1012.79
2017-09-21T06:30:33.875Z,1012.75
2017-09-21T06:31:33.841Z,1012.74
2017-09-21T06:32:33.809Z,1012.78
2017-09-21T06:33:33.775Z,1012.80
2017-09-21T06:34:33.743Z,1012.81
2017-09-21T06:35:33.710Z,1012.84
2017-09-21T06:36:33.682Z,1012.81
2017-09-21T06:37:33.803Z,1012.78
2017-09-21T06:38:33.611Z,1012.72
2017-09-21T06:39:33.596Z,1012.75
2017-09-21T06:40:33.545Z,1012.82
2017-09-21T06:41:33.512Z,1012.80
2017-09-21T06:42:33.480Z,1012.84
2017-09-21T06:43:33.451Z,1012.83
2017-09-21T06:44:33.416Z,1012.85
2017-09-21T06:45:33.381Z,1012.86
2017-09-21T06:46:33.348Z,1012.84
2017-09-21T06:47:33.318Z,1012.84
2017-09-21T06:48:33.934Z,1012.83
2017-09-21T06:49:33.251Z,1012.84
2017-09-21T06:50:33.219Z,1012.80
2017-09-21T06:51:33.188Z,1012.84
2017-09-21T06:52:33.160Z,1012.86
2017-09-21T06:53:33.125Z,1012.83
2017-09-21T06:54:33.093Z,1012.85
2017-09-21T06:55:33.083Z,1012.86
2017-09-21T06:56:33.030Z,1012.79
2017-09-21T06:57:33.001Z,1012.80
2017-09-21T06:58:32.967Z,1012.83
2017-09-21T06:59:32.937Z,1012.85
2017-09-21T07:00:32.909Z,1012.78
2017-09-21T07:01:32.878Z,1012.83
2017-09-21T07:02:32.846Z,1012.78
2017-09-21T07:03:32.816Z,1012.78
2017-09-21T07:04:32.784Z,1012.79
2017-09-21T07:05:32.755Z,1012.86
2017-09-21T07:06:32.726Z,1012.81
2017-09-21T07:07:32.695Z,1012.88
2017-09-21T07:08:32.667Z,1012.83
2017-09-21T07:09:32.635Z,1012.82
2017-09-21T07:10:32.609Z,1012.87
2017-09-21T07:11:32.577Z,1012.87
2017-09-21T07:12:32.595Z,1012.79
2017-09-21T07:13:32.519Z,1012.84
2017-09-21T07:14:32.489Z,1012.91
2017-09-21T07:15:32.461Z,1012.87
2017-09-21T07:16:32.431Z,1012.86
2017-09-21T07:17:32.406Z,1012.90
2017-09-21T07:18:32.396Z,1012.92
2017-09-21T07:19:32.664Z,1012.91
2017-09-21T07:20:32.317Z,1012.93
2017-09-21T07:21:32.288Z,1012.89
2017-09-21T07:22:32.261Z,1012.94
2017-09-21T07:23:32.233Z,1012.93
2017-09-21T07:24:32.204Z,1012.96
2017-09-21T07:25:32.177Z,1012.92
2017-09-21T07:26:32.150Z,1012.91
2017-09-21T07:27:32.120Z,1013.00
2017-09-21T07:28:32.095Z,1012.92
2017-09-21T07:29:32.067Z,1012.96
2017-09-21T07:30:32.040Z,1012.96
2017-09-21T07:31:32.013Z,1012.96
2017-09-21T07:32:31.983Z,1012.94
2017-09-21T07:33:31.957Z,1013.05
2017-09-21T07:34:31.929Z,1013.00
2017-09-21T07:35:31.902Z,1012.93
2017-09-21T07:36:32.249Z,1012.90
2017-09-21T07:37:31.850Z,1012.99
2017-09-21T07:38:31.822Z,1013.01
2017-09-21T07:39:31.800Z,1013.00
2017-09-21T07:40:31.769Z,1013.00
2017-09-21T07:41:31.743Z,1013.02
2017-09-21T07:42:31.716Z,1012.99
2017-09-21T07:43:31.691Z,1013.08
2017-09-21T07:44:31.665Z,1013.05
2017-09-21T07:45:31.646Z,1013.07
2017-09-21T07:46:31.612Z,1013.08
2017-09-21T07:47:31.587Z,1013.13
2017-09-21T07:48:31.561Z,1013.10
2017-09-21T07:49:31.536Z,1013.05
2017-09-21T07:50:31.510Z,1013.13
2017-09-21T07:51:31.487Z,1013.14
2017-09-21T07:52:31.459Z,1013.11
2017-09-21T07:53:31.434Z,1013.01
2017-09-21T07:54:31.409Z,1013.13
2017-09-21T07:55:31.384Z,1013.07
2017-09-21T07:56:31.359Z,1013.09
2017-09-21T07:57:31.334Z,1013.18
2017-09-21T07:58:31.309Z,1013.12
2017-09-21T07:59:31.284Z,1013.15
2017-09-21T08:00:31.260Z,1013.15
2017-09-21T08:01:31.239Z,1013.20
2017-09-21T08:02:31.210Z,1013.23
2017-09-21T08:03:31.187Z,1013.24
2017-09-21T08:04:31.164Z,1013.14
2017-09-21T08:05:31.137Z,1013.15
2017-09-21T08:06:31.114Z,1013.19
2017-09-21T08:07:31.089Z,1013.16
2017-09-21T08:08:31.066Z,1013.12
2017-09-21T08:09:31.043Z,1013.15
2017-09-21T08:10:31.017Z,1013.22
2017-09-21T08:11:30.994Z,1013.17
2017-09-21T08:12:30.970Z,1013.16
2017-09-21T08:13:30.946Z,1013.20
2017-09-21T08:14:30.927Z,1013.16
2017-09-21T08:15:30.899Z,1013.20
2017-09-21T08:16:30.876Z,1013.19
2017-09-21T08:17:30.854Z,1013.10
2017-09-21T08:18:30.832Z,1013.13
2017-09-21T08:19:30.809Z,1013.17
2017-09-21T08:20:30.784Z,1013.16
2017-09-21T08:21:30.760Z,1013.19
2017-09-21T08:22:30.737Z,1013.18
2017-09-21T08:23:30.713Z,1013.16
2017-09-21T08:24:30.691Z,1013.16
2017-09-21T08:25:30.669Z,1013.20
2017-09-21T08:26:30.645Z,1013.20
2017-09-21T08:27:30.625Z,1013.24
2017-09-21T08:28:30.603Z,1013.27
2017-09-21T08:29:30.578Z,1013.21
2017-09-21T08:30:30.557Z,1013.22
2017-09-21T08:31:30.539Z,1013.16
2017-09-21T08:32:30.513Z,1013.24
2017-09-21T08:33:30.491Z,1013.13
2017-09-21T08:34:30.469Z,1013.18
2017-09-21T08:35:30.446Z,1013.25
2017-09-21T08:36:30.424Z,1013.30
2017-09-21T08:37:30.402Z,1013.31
2017-09-21T08:38:30.379Z,1013.24
2017-09-21T08:39:30.357Z,1013.34
2017-09-21T08:40:30.335Z,1013.34
2017-09-21T08:41:30.313Z,1013.35
2017-09-21T08:42:30.292Z,1013.37
2017-09-21T08:43:30.268Z,1013.27
2017-09-21T08:44:30.248Z,1013.41
2017-09-21T08:45:30.229Z,1013.41
2017-09-21T08:46:30.204Z,1013.40
2017-09-21T08:47:30.185Z,1013.44
2017-09-21T08:48:30.163Z,1013.49
2017-09-21T08:49:30.141Z,1013.57
2017-09-21T08:50:30.121Z,1013.80
2017-09-21T08:51:30.099Z,1014.29
2017-09-21T08:52:30.079Z,1014.23
2017-09-21T08:53:30.059Z,1014.18
2017-09-21T08:54:30.039Z,1014.20
2017-09-21T08:55:30.017Z,1014.20
2017-09-21T08:56:29.998Z,1013.93
2017-09-21T08:57:29.977Z,1014.15
2017-09-21T08:58:29.957Z,1014.17
2017-09-21T08:59:29.938Z,1014.13
2017-09-21T09:00:29.918Z,1014.03
2017-09-21T09:01:29.897Z,1014.01
2017-09-21T09:02:29.876Z,1013.98
2017-09-21T09:03:29.858Z,1013.89
2017-09-21T09:04:29.840Z,1013.87
2017-09-21T09:05:29.816Z,1013.93
2017-09-21T09:06:29.797Z,1013.87
2017-09-21T09:07:29.778Z,1013.77
2017-09-21T09:08:29.763Z,1013.85
2017-09-21T09:09:29.739Z,1013.70
2017-09-21T09:10:29.861Z,1013.93
2017-09-21T09:11:29.701Z,1014.09
2017-09-21T09:12:29.679Z,1014.15
2017-09-21T09:13:29.659Z,1014.18
2017-09-21T09:14:29.641Z,1014.29
2017-09-21T09:15:29.620Z,1014.00
2017-09-21T09:16:29.603Z,1014.12
2017-09-21T09:17:29.581Z,1013.57
2017-09-21T09:18:29.556Z,1013.16
2017-09-21T09:19:29.542Z,1013.21
2017-09-21T09:20:29.524Z,1013.16
2017-09-21T09:21:29.503Z,1013.17
2017-09-21T09:22:29.486Z,1013.14
2017-09-21T09:23:29.468Z,1013.04
2017-09-21T09:24:29.447Z,1013.10
2017-09-21T09:25:29.427Z,1013.13
2017-09-21T09:26:29.407Z,1013.12
2017-09-21T09:27:29.390Z,1013.19
2017-09-21T09:28:29.369Z,1013.59
2017-09-21T09:29:29.351Z,1013.76
2017-09-21T09:30:29.332Z,1013.86
2017-09-21T09:31:29.313Z,1013.67
2017-09-21T09:32:29.293Z,1013.41
2017-09-21T09:33:29.275Z,1013.09
2017-09-21T09:34:29.256Z,1013.06
2017-09-21T09:35:29.238Z,1013.08
2017-09-21T09:36:29.220Z,1013.06
2017-09-21T09:37:29.200Z,1013.08
2017-09-21T09:38:29.183Z,1013.01
2017-09-21T09:39:29.165Z,1013.02
2017-09-21T09:40:29.146Z,1013.00
2017-09-21T09:41:29.128Z,1012.95
2017-09-21T09:42:29.109Z,1012.92
2017-09-21T09:43:29.091Z,1012.97
2017-09-21T09:44:29.072Z,1012.91
2017-09-21T09:45:29.055Z,1012.88
2017-09-21T09:46:29.037Z,1012.88
2017-09-21T09:47:29.024Z,1012.93
2017-09-21T09:48:29.000Z,1012.95
2017-09-21T09:49:28.982Z,1012.95
2017-09-21T09:50:28.966Z,1012.94
2017-09-21T09:51:28.948Z,1012.90
2017-09-21T09:52:28.927Z,1012.91
2017-09-21T09:53:28.910Z,1012.90
2017-09-21T09:54:28.894Z,1012.86
2017-09-21T09:55:28.875Z,1012.90
2017-09-21T09:56:28.856Z,1012.95
2017-09-21T09:57:28.840Z,1012.93
2017-09-21T09:58:28.823Z,1012.94
2017-09-21T09:59:28.804Z,1012.85
2017-09-21T10:00:28.786Z,1012.92
2017-09-21T10:01:28.767Z,1012.89
2017-09-21T10:02:28.751Z,1012.85
2017-09-21T10:03:28.734Z,1012.87
2017-09-21T10:04:28.718Z,1012.89
2017-09-21T10:05:28.702Z,1012.85
2017-09-21T10:06:28.681Z,1012.90
2017-09-21T10:07:28.665Z,1012.88
2017-09-21T10:08:28.652Z,1012.78
2017-09-21T10:09:28.629Z,1012.85
2017-09-21T10:10:28.614Z,1012.84
2017-09-21T10:11:28.595Z,1012.80
2017-09-21T10:12:28.580Z,1012.80
2017-09-21T10:13:28.561Z,1012.83
2017-09-21T10:14:28.543Z,1012.76
2017-09-21T10:15:28.528Z,1012.84
2017-09-21T10:16:28.525Z,1012.80
2017-09-21T10:17:28.497Z,1012.89
2017-09-21T10:18:28.475Z,1012.88
2017-09-21T10:19:28.458Z,1012.83
2017-09-21T10:20:28.441Z,1012.86
2017-09-21T10:21:28.425Z,1012.77
2017-09-21T10:22:28.406Z,1012.81
2017-09-21T10:23:28.389Z,1012.84
2017-09-21T10:24:28.374Z,1012.79
2017-09-21T10:25:28.353Z,1012.84
2017-09-21T10:26:28.338Z,1012.85
2017-09-21T10:27:28.322Z,1012.87
2017-09-21T10:28:28.304Z,1012.83
2017-09-21T10:29:28.286Z,1012.83
2017-09-21T10:30:28.273Z,1012.79
2017-09-21T10:31:28.252Z,1012.76
2017-09-21T10:32:28.236Z,1012.74
2017-09-21T10:33:28.584Z,1012.84
2017-09-21T10:34:28.204Z,1012.75
2017-09-21T10:35:28.183Z,1012.78
2017-09-21T10:36:28.166Z,1012.80
2017-09-21T10:37:28.148Z,1012.80
2017-09-21T10:38:28.134Z,1012.77
2017-09-21T10:39:28.116Z,1012.73
2017-09-21T10:40:28.097Z,1012.71
2017-09-21T10:41:28.080Z,1012.74
2017-09-21T10:42:28.062Z,1012.73
2017-09-21T10:43:28.046Z,1012.72
2017-09-21T10:44:28.029Z,1012.80
2017-09-21T10:45:28.012Z,1012.78
2017-09-21T10:46:27.995Z,1012.78
2017-09-21T10:47:27.980Z,1012.73
2017-09-21T10:48:28.219Z,1012.73
2017-09-21T10:49:27.945Z,1012.78
2017-09-21T10:50:27.930Z,1012.69
2017-09-21T10:51:27.914Z,1012.70
2017-09-21T10:52:27.898Z,1012.71
2017-09-21T10:53:27.883Z,1012.66
2017-09-21T10:54:27.865Z,1012.68
2017-09-21T10:55:27.849Z,1012.60
2017-09-21T10:56:27.836Z,1012.62
2017-09-21T10:57:27.819Z,1012.61
2017-09-21T10:58:27.803Z,1012.68
2017-09-21T10:59:27.787Z,1012.72
2017-09-21T11:00:27.771Z,1012.72
2017-09-21T11:01:27.980Z,1012.71
2017-09-21T11:02:27.741Z,1012.66
2017-09-21T11:03:27.724Z,1012.63
2017-09-21T11:04:27.709Z,1012.57
2017-09-21T11:05:27.693Z,1012.60
2017-09-21T11:06:27.677Z,1012.54
2017-09-21T11:07:27.662Z,1012.57
2017-09-21T11:08:27.647Z,1012.60
2017-09-21T11:09:27.630Z,1012.54
2017-09-21T11:10:27.613Z,1012.55
2017-09-21T11:11:27.603Z,1012.49
2017-09-21T11:12:27.583Z,1012.47
2017-09-21T11:13:27.586Z,1012.60
2017-09-21T11:14:27.551Z,1012.55
2017-09-21T11:15:27.533Z,1012.53
2017-09-21T11:16:27.518Z,1012.41
2017-09-21T11:17:27.501Z,1012.45
2017-09-21T11:18:27.485Z,1012.40
2017-09-21T11:19:27.469Z,1012.36
2017-09-21T11:20:27.452Z,1012.39
2017-09-21T11:21:27.436Z,1012.34
2017-09-21T11:22:27.420Z,1012.31
2017-09-21T11:23:27.404Z,1012.31
2017-09-21T11:24:27.389Z,1012.21
2017-09-21T11:25:27.371Z,1012.28
2017-09-21T11:26:27.356Z,1012.22
2017-09-21T11:27:27.337Z,1012.21
2017-09-21T11:28:27.323Z,1012.28
2017-09-21T11:29:27.303Z,1012.30
2017-09-21T11:30:27.287Z,1012.26
2017-09-21T11:31:27.275Z,1012.29
2017-09-21T11:32:27.254Z,1012.23
2017-09-21T11:33:27.237Z,1012.03
2017-09-21T11:34:27.223Z,1012.07
2017-09-21T11:35:27.203Z,1012.11
2017-09-21T11:36:27.188Z,1012.12
2017-09-21T11:37:27.167Z,1012.15
2017-09-21T11:38:27.160Z,1012.11
2017-09-21T11:39:27.133Z,1012.09
2017-09-21T11:40:27.118Z,1012.04
2017-09-21T11:41:27.099Z,1012.09
2017-09-21T11:42:27.081Z,1012.08
2017-09-21T11:43:27.065Z,1012.10
2017-09-21T11:44:27.047Z,1012.13
2017-09-21T11:45:27.028Z,1012.04
2017-09-21T11:46:27.009Z,1012.03
2017-09-21T11:47:26.997Z,1012.05
2017-09-21T11:48:26.975Z,1012.02
2017-09-21T11:49:26.956Z,1012.02
2017-09-21T11:50:26.938Z,1011.87
2017-09-21T11:51:26.924Z,1011.77
2017-09-21T11:52:26.906Z,1011.87
2017-09-21T11:53:26.890Z,1011.83
2017-09-21T11:54:26.866Z,1011.83
2017-09-21T11:55:26.851Z,1011.85
2017-09-21T11:56:26.833Z,1011.82
2017-09-21T11:57:26.817Z,1011.80
2017-09-21T11:58:26.797Z,1011.75
2017-09-21T11:59:26.778Z,1011.78
2017-09-21T12:00:26.763Z,1011.67
2017-09-21T12:01:26.744Z,1011.70
2017-09-21T12:02:26.725Z,1011.74
2017-09-21T12:03:26.710Z,1011.69
2017-09-21T12:04:26.693Z,1011.69
2017-09-21T12:05:26.674Z,1011.66